sensor_id;sensor_type;location;lat;lon;timestamp;temperature;humidity
19483;DHT22;9882;51.166;6.992;2023-01-29T00:02:11;0.00;99.90
19483;DHT22;9882;51.166;6.992;2023-01-29T00:04:39;0.00;99.90
19483;DHT22;9882;51.166;6.992;2023-01-29T00:07:08;0.00;99.90
19483;DHT22;9882;51.166;6.992;2023-01-29T00:09:38;0.00;99.90
19483;DHT22;9882;51.166;6.992;2023-01-29T00:12:07;0.00;99.90
19483;DHT22;9882;51.166;6.992;2023-01-29T00:14:37;0.00;99.90
19483;DHT22;9882;51.166;6.992;2023-01-29T00:17:06;-0.10;99.90
19483;DHT22;9882;51.166;6.992;2023-01-29T00:19:35;-0.10;99.90
19483;DHT22;9882;51.166;6.992;2023-01-29T00:22:04;-0.10;99.90
19483;DHT22;9882;51.166;6.992;2023-01-29T00:24:33;-0.10;99.90
19483;DHT22;9882;51.166;6.992;2023-01-29T00:27:04;-0.20;99.90
19483;DHT22;9882;51.166;6.992;2023-01-29T00:29:33;-0.20;99.90
19483;DHT22;9882;51.166;6.992;2023-01-29T00:32:03;-0.10;99.90
19483;DHT22;9882;51.166;6.992;2023-01-29T00:34:36;-0.10;99.90
19483;DHT22;9882;51.166;6.992;2023-01-29T00:37:06;-0.20;99.90
19483;DHT22;9882;51.166;6.992;2023-01-29T00:39:38;-0.20;99.90
19483;DHT22;9882;51.166;6.992;2023-01-29T00:42:15;-0.20;99.90
19483;DHT22;9882;51.166;6.992;2023-01-29T00:45:04;-0.20;99.90
19483;DHT22;9882;51.166;6.992;2023-01-29T00:47:33;-0.30;99.90
19483;DHT22;9882;51.166;6.992;2023-01-29T00:50:05;-0.30;99.90
19483;DHT22;9882;51.166;6.992;2023-01-29T00:52:35;-0.30;99.90
19483;DHT22;9882;51.166;6.992;2023-01-29T00:55:06;-0.30;99.90
19483;DHT22;9882;51.166;6.992;2023-01-29T00:57:37;-0.40;99.90
19483;DHT22;9882;51.166;6.992;2023-01-29T01:00:09;-0.40;99.90
19483;DHT22;9882;51.166;6.992;2023-01-29T01:02:39;-0.40;99.90
19483;DHT22;9882;51.166;6.992;2023-01-29T01:05:26;-0.40;99.90
19483;DHT22;9882;51.166;6.992;2023-01-29T01:07:57;-0.40;99.90
19483;DHT22;9882;51.166;6.992;2023-01-29T01:10:29;-0.40;99.90
19483;DHT22;9882;51.166;6.992;2023-01-29T01:13:00;-0.40;99.90
19483;DHT22;9882;51.166;6.992;2023-01-29T01:15:32;-0.40;99.90
19483;DHT22;9882;51.166;6.992;2023-01-29T01:18:03;-0.50;99.90
19483;DHT22;9882;51.166;6.992;2023-01-29T01:20:34;-0.50;99.90
19483;DHT22;9882;51.166;6.992;2023-01-29T01:23:03;-0.50;99.90
19483;DHT22;9882;51.166;6.992;2023-01-29T01:25:33;-0.50;99.90
19483;DHT22;9882;51.166;6.992;2023-01-29T01:28:04;-0.50;99.90
19483;DHT22;9882;51.166;6.992;2023-01-29T01:30:33;-0.50;99.90
19483;DHT22;9882;51.166;6.992;2023-01-29T01:33:03;-0.50;99.90
19483;DHT22;9882;51.166;6.992;2023-01-29T01:35:32;-0.60;99.90
19483;DHT22;9882;51.166;6.992;2023-01-29T01:38:01;-0.60;99.90
19483;DHT22;9882;51.166;6.992;2023-01-29T01:40:31;-0.60;99.90
19483;DHT22;9882;51.166;6.992;2023-01-29T01:43:00;-0.60;99.90
19483;DHT22;9882;51.166;6.992;2023-01-29T01:45:32;-0.60;99.90
19483;DHT22;9882;51.166;6.992;2023-01-29T01:48:04;-0.60;99.90
19483;DHT22;9882;51.166;6.992;2023-01-29T01:50:39;-0.50;99.90
19483;DHT22;9882;51.166;6.992;2023-01-29T01:53:14;-0.60;99.90
19483;DHT22;9882;51.166;6.992;2023-01-29T01:55:48;-0.60;99.90
19483;DHT22;9882;51.166;6.992;2023-01-29T01:58:23;-0.60;99.90
19483;DHT22;9882;51.166;6.992;2023-01-29T02:00:55;-0.60;99.90
19483;DHT22;9882;51.166;6.992;2023-01-29T02:03:27;-0.70;99.90
19483;DHT22;9882;51.166;6.992;2023-01-29T02:06:16;-0.70;99.90
19483;DHT22;9882;51.166;6.992;2023-01-29T02:09:06;-0.70;99.90
19483;DHT22;9882;51.166;6.992;2023-01-29T02:11:55;-0.70;99.90
19483;DHT22;9882;51.166;6.992;2023-01-29T02:14:24;-0.70;99.90
19483;DHT22;9882;51.166;6.992;2023-01-29T02:17:01;-0.70;99.90
19483;DHT22;9882;51.166;6.992;2023-01-29T02:19:43;-0.70;99.90
19483;DHT22;9882;51.166;6.992;2023-01-29T02:22:35;-0.80;99.90
19483;DHT22;9882;51.166;6.992;2023-01-29T02:25:32;-0.80;99.90
19483;DHT22;9882;51.166;6.992;2023-01-29T02:28:18;-0.80;99.90
19483;DHT22;9882;51.166;6.992;2023-01-29T02:30:55;-0.70;99.90
19483;DHT22;9882;51.166;6.992;2023-01-29T02:33:34;-0.80;99.90
19483;DHT22;9882;51.166;6.992;2023-01-29T02:36:13;-0.80;99.90
19483;DHT22;9882;51.166;6.992;2023-01-29T02:38:49;-0.90;99.90
19483;DHT22;9882;51.166;6.992;2023-01-29T02:41:24;-0.90;99.90
19483;DHT22;9882;51.166;6.992;2023-01-29T02:44:03;-0.90;99.90
19483;DHT22;9882;51.166;6.992;2023-01-29T02:46:35;-0.80;99.90
19483;DHT22;9882;51.166;6.992;2023-01-29T02:49:10;-0.80;99.90
19483;DHT22;9882;51.166;6.992;2023-01-29T02:51:49;-0.90;99.90
19483;DHT22;9882;51.166;6.992;2023-01-29T02:54:23;-0.90;99.90
19483;DHT22;9882;51.166;6.992;2023-01-29T02:56:56;-0.90;99.90
19483;DHT22;9882;51.166;6.992;2023-01-29T02:59:33;-1.00;99.90
19483;DHT22;9882;51.166;6.992;2023-01-29T03:02:07;-0.90;99.90
19483;DHT22;9882;51.166;6.992;2023-01-29T03:04:41;-0.90;99.90
19483;DHT22;9882;51.166;6.992;2023-01-29T03:07:16;-0.90;99.90
19483;DHT22;9882;51.166;6.992;2023-01-29T03:10:15;-0.90;99.90
19483;DHT22;9882;51.166;6.992;2023-01-29T03:12:48;-0.90;99.90
19483;DHT22;9882;51.166;6.992;2023-01-29T03:15:27;-1.00;99.90
19483;DHT22;9882;51.166;6.992;2023-01-29T03:18:19;-1.00;99.90
19483;DHT22;9882;51.166;6.992;2023-01-29T03:21:00;-0.90;99.90
19483;DHT22;9882;51.166;6.992;2023-01-29T03:23:53;-1.00;99.90
19483;DHT22;9882;51.166;6.992;2023-01-29T03:26:43;-1.00;99.90
19483;DHT22;9882;51.166;6.992;2023-01-29T03:29:35;-1.00;99.90
19483;DHT22;9882;51.166;6.992;2023-01-29T03:32:29;-1.10;99.90
19483;DHT22;9882;51.166;6.992;2023-01-29T03:35:03;-1.00;99.90
19483;DHT22;9882;51.166;6.992;2023-01-29T03:37:37;-1.10;99.90
19483;DHT22;9882;51.166;6.992;2023-01-29T03:40:09;-1.10;99.90
19483;DHT22;9882;51.166;6.992;2023-01-29T03:42:48;-1.10;99.90
19483;DHT22;9882;51.166;6.992;2023-01-29T03:45:21;-1.10;99.90
19483;DHT22;9882;51.166;6.992;2023-01-29T03:48:02;-1.10;99.90
19483;DHT22;9882;51.166;6.992;2023-01-29T03:50:37;-1.10;99.90
19483;DHT22;9882;51.166;6.992;2023-01-29T03:53:16;-1.00;99.90
19483;DHT22;9882;51.166;6.992;2023-01-29T03:55:53;-1.10;99.90
19483;DHT22;9882;51.166;6.992;2023-01-29T03:58:32;-1.10;99.90
19483;DHT22;9882;51.166;6.992;2023-01-29T04:01:07;-1.10;99.90
19483;DHT22;9882;51.166;6.992;2023-01-29T04:03:42;-1.10;99.90
19483;DHT22;9882;51.166;6.992;2023-01-29T04:06:16;-1.10;99.90
19483;DHT22;9882;51.166;6.992;2023-01-29T04:09:17;-1.20;99.90
19483;DHT22;9882;51.166;6.992;2023-01-29T04:11:55;-1.20;99.90
19483;DHT22;9882;51.166;6.992;2023-01-29T04:14:26;-1.20;99.90
19483;DHT22;9882;51.166;6.992;2023-01-29T04:17:00;-1.20;99.90
19483;DHT22;9882;51.166;6.992;2023-01-29T04:19:43;-1.20;99.90
19483;DHT22;9882;51.166;6.992;2023-01-29T04:22:17;-1.20;99.90
19483;DHT22;9882;51.166;6.992;2023-01-29T04:24:50;-1.30;99.90
19483;DHT22;9882;51.166;6.992;2023-01-29T04:27:25;-1.20;99.90
19483;DHT22;9882;51.166;6.992;2023-01-29T04:30:22;-1.20;99.90
19483;DHT22;9882;51.166;6.992;2023-01-29T04:33:03;-1.30;99.90
19483;DHT22;9882;51.166;6.992;2023-01-29T04:35:46;-1.30;99.90
19483;DHT22;9882;51.166;6.992;2023-01-29T04:38:32;-1.20;99.90
19483;DHT22;9882;51.166;6.992;2023-01-29T04:41:06;-1.30;99.90
19483;DHT22;9882;51.166;6.992;2023-01-29T04:43:40;-1.40;99.90
19483;DHT22;9882;51.166;6.992;2023-01-29T04:46:14;-1.40;99.90
19483;DHT22;9882;51.166;6.992;2023-01-29T04:48:52;-1.50;99.90
19483;DHT22;9882;51.166;6.992;2023-01-29T04:51:34;-1.40;99.90
19483;DHT22;9882;51.166;6.992;2023-01-29T04:54:13;-1.50;99.90
19483;DHT22;9882;51.166;6.992;2023-01-29T04:56:50;-1.40;99.90
19483;DHT22;9882;51.166;6.992;2023-01-29T04:59:24;-1.50;99.90
19483;DHT22;9882;51.166;6.992;2023-01-29T05:01:59;-1.60;99.90
19483;DHT22;9882;51.166;6.992;2023-01-29T05:04:31;-1.50;99.90
19483;DHT22;9882;51.166;6.992;2023-01-29T05:07:06;-1.50;99.90
19483;DHT22;9882;51.166;6.992;2023-01-29T05:09:37;-1.50;99.90
19483;DHT22;9882;51.166;6.992;2023-01-29T05:12:09;-1.50;99.90
19483;DHT22;9882;51.166;6.992;2023-01-29T05:14:41;-1.50;99.90
19483;DHT22;9882;51.166;6.992;2023-01-29T05:17:15;-1.50;99.90
19483;DHT22;9882;51.166;6.992;2023-01-29T05:19:48;-1.70;99.90
19483;DHT22;9882;51.166;6.992;2023-01-29T05:22:19;-1.70;99.90
19483;DHT22;9882;51.166;6.992;2023-01-29T05:24:49;-1.60;99.90
19483;DHT22;9882;51.166;6.992;2023-01-29T05:27:21;-1.50;99.90
19483;DHT22;9882;51.166;6.992;2023-01-29T05:30:10;-1.50;99.90
19483;DHT22;9882;51.166;6.992;2023-01-29T05:32:39;-1.50;99.90
19483;DHT22;9882;51.166;6.992;2023-01-29T05:35:08;-1.60;99.90
19483;DHT22;9882;51.166;6.992;2023-01-29T05:37:39;-1.40;99.90
19483;DHT22;9882;51.166;6.992;2023-01-29T05:40:09;-1.50;99.90
19483;DHT22;9882;51.166;6.992;2023-01-29T05:42:39;-1.50;99.90
19483;DHT22;9882;51.166;6.992;2023-01-29T05:45:09;-1.50;99.90
19483;DHT22;9882;51.166;6.992;2023-01-29T05:47:38;-1.50;99.90
19483;DHT22;9882;51.166;6.992;2023-01-29T05:50:09;-1.70;99.90
19483;DHT22;9882;51.166;6.992;2023-01-29T05:52:40;-1.60;99.90
19483;DHT22;9882;51.166;6.992;2023-01-29T05:55:10;-1.60;99.90
19483;DHT22;9882;51.166;6.992;2023-01-29T05:57:39;-1.70;99.90
19483;DHT22;9882;51.166;6.992;2023-01-29T06:00:10;-1.70;99.90
19483;DHT22;9882;51.166;6.992;2023-01-29T06:02:40;-1.60;99.90
19483;DHT22;9882;51.166;6.992;2023-01-29T06:05:10;-1.60;99.90
19483;DHT22;9882;51.166;6.992;2023-01-29T06:07:41;-1.60;99.90
19483;DHT22;9882;51.166;6.992;2023-01-29T06:10:13;-1.60;99.90
19483;DHT22;9882;51.166;6.992;2023-01-29T06:12:43;-1.60;99.90
19483;DHT22;9882;51.166;6.992;2023-01-29T06:15:13;-1.60;99.90
19483;DHT22;9882;51.166;6.992;2023-01-29T06:17:43;-1.60;99.90
19483;DHT22;9882;51.166;6.992;2023-01-29T06:20:12;-1.70;99.90
19483;DHT22;9882;51.166;6.992;2023-01-29T06:22:44;-1.70;99.90
19483;DHT22;9882;51.166;6.992;2023-01-29T06:25:13;-1.70;99.90
19483;DHT22;9882;51.166;6.992;2023-01-29T06:27:42;-1.70;99.90
19483;DHT22;9882;51.166;6.992;2023-01-29T06:30:13;-1.60;99.90
19483;DHT22;9882;51.166;6.992;2023-01-29T06:32:43;-1.60;99.90
19483;DHT22;9882;51.166;6.992;2023-01-29T06:35:12;-1.60;99.90
19483;DHT22;9882;51.166;6.992;2023-01-29T06:37:43;-1.60;99.90
19483;DHT22;9882;51.166;6.992;2023-01-29T06:40:12;-1.70;99.90
19483;DHT22;9882;51.166;6.992;2023-01-29T06:42:42;-1.60;99.90
19483;DHT22;9882;51.166;6.992;2023-01-29T06:45:12;-1.70;99.90
19483;DHT22;9882;51.166;6.992;2023-01-29T06:47:44;-1.70;99.90
19483;DHT22;9882;51.166;6.992;2023-01-29T06:50:13;-1.70;99.90
19483;DHT22;9882;51.166;6.992;2023-01-29T06:52:44;-1.80;99.90
19483;DHT22;9882;51.166;6.992;2023-01-29T06:55:13;-1.70;99.90
19483;DHT22;9882;51.166;6.992;2023-01-29T06:57:43;-1.70;99.90
19483;DHT22;9882;51.166;6.992;2023-01-29T07:00:13;-1.70;99.90
19483;DHT22;9882;51.166;6.992;2023-01-29T07:02:43;-1.80;99.90
19483;DHT22;9882;51.166;6.992;2023-01-29T07:05:13;-1.80;99.90
19483;DHT22;9882;51.166;6.992;2023-01-29T07:07:43;-1.80;99.90
19483;DHT22;9882;51.166;6.992;2023-01-29T07:10:12;-1.80;99.90
19483;DHT22;9882;51.166;6.992;2023-01-29T07:12:42;-1.90;99.90
19483;DHT22;9882;51.166;6.992;2023-01-29T07:15:11;-1.90;99.90
19483;DHT22;9882;51.166;6.992;2023-01-29T07:17:41;-1.90;99.90
19483;DHT22;9882;51.166;6.992;2023-01-29T07:20:11;-1.90;99.90
19483;DHT22;9882;51.166;6.992;2023-01-29T07:22:40;-1.90;99.90
19483;DHT22;9882;51.166;6.992;2023-01-29T07:25:11;-1.90;99.90
19483;DHT22;9882;51.166;6.992;2023-01-29T07:27:40;-1.90;99.90
19483;DHT22;9882;51.166;6.992;2023-01-29T07:30:10;-1.90;99.90
19483;DHT22;9882;51.166;6.992;2023-01-29T07:32:39;-1.90;99.90
19483;DHT22;9882;51.166;6.992;2023-01-29T07:35:12;-1.80;99.90
19483;DHT22;9882;51.166;6.992;2023-01-29T07:38:28;-1.90;99.90
19483;DHT22;9882;51.166;6.992;2023-01-29T07:48:18;-1.80;99.90
19483;DHT22;9882;51.166;6.992;2023-01-29T07:51:05;-1.70;99.90
19483;DHT22;9882;51.166;6.992;2023-01-29T07:53:34;-1.70;99.90
19483;DHT22;9882;51.166;6.992;2023-01-29T07:56:03;-1.80;99.90
19483;DHT22;9882;51.166;6.992;2023-01-29T07:58:32;-1.80;99.90
19483;DHT22;9882;51.166;6.992;2023-01-29T08:01:07;-1.70;99.90
19483;DHT22;9882;51.166;6.992;2023-01-29T08:03:37;-1.60;99.90
19483;DHT22;9882;51.166;6.992;2023-01-29T08:06:11;-1.60;99.90
19483;DHT22;9882;51.166;6.992;2023-01-29T08:08:43;-1.60;99.90
19483;DHT22;9882;51.166;6.992;2023-01-29T08:11:11;-1.60;99.90
19483;DHT22;9882;51.166;6.992;2023-01-29T08:13:40;-1.60;99.90
19483;DHT22;9882;51.166;6.992;2023-01-29T08:16:09;-1.60;99.90
19483;DHT22;9882;51.166;6.992;2023-01-29T08:18:42;-1.60;99.90
19483;DHT22;9882;51.166;6.992;2023-01-29T08:21:14;-1.60;99.90
19483;DHT22;9882;51.166;6.992;2023-01-29T08:23:44;-1.50;99.90
19483;DHT22;9882;51.166;6.992;2023-01-29T08:26:14;-1.60;99.90
19483;DHT22;9882;51.166;6.992;2023-01-29T08:28:43;-1.50;99.90
19483;DHT22;9882;51.166;6.992;2023-01-29T08:31:15;-1.40;99.90
19483;DHT22;9882;51.166;6.992;2023-01-29T08:33:48;-1.50;99.90
19483;DHT22;9882;51.166;6.992;2023-01-29T08:36:17;-1.50;99.90
19483;DHT22;9882;51.166;6.992;2023-01-29T08:38:45;-1.60;99.90
19483;DHT22;9882;51.166;6.992;2023-01-29T08:41:13;-1.60;99.90
19483;DHT22;9882;51.166;6.992;2023-01-29T08:43:42;-1.50;99.90
19483;DHT22;9882;51.166;6.992;2023-01-29T08:46:11;-1.60;99.90
19483;DHT22;9882;51.166;6.992;2023-01-29T08:48:39;-1.70;99.90
19483;DHT22;9882;51.166;6.992;2023-01-29T08:51:09;-1.70;99.90
19483;DHT22;9882;51.166;6.992;2023-01-29T08:53:38;-1.60;99.90
19483;DHT22;9882;51.166;6.992;2023-01-29T08:56:07;-1.60;99.90
19483;DHT22;9882;51.166;6.992;2023-01-29T08:58:35;-1.50;99.90
19483;DHT22;9882;51.166;6.992;2023-01-29T09:01:05;-1.50;99.90
19483;DHT22;9882;51.166;6.992;2023-01-29T09:03:34;-1.50;99.90
19483;DHT22;9882;51.166;6.992;2023-01-29T09:06:03;-1.50;99.90
19483;DHT22;9882;51.166;6.992;2023-01-29T09:08:39;-1.50;99.90
19483;DHT22;9882;51.166;6.992;2023-01-29T09:11:08;-1.50;99.90
19483;DHT22;9882;51.166;6.992;2023-01-29T09:13:36;-1.40;99.90
19483;DHT22;9882;51.166;6.992;2023-01-29T09:16:05;-1.40;99.90
19483;DHT22;9882;51.166;6.992;2023-01-29T09:23:02;-1.30;99.90
19483;DHT22;9882;51.166;6.992;2023-01-29T09:29:01;-1.40;99.90
19483;DHT22;9882;51.166;6.992;2023-01-29T09:32:04;-1.30;99.90
19483;DHT22;9882;51.166;6.992;2023-01-29T09:35:11;-1.30;99.90
19483;DHT22;9882;51.166;6.992;2023-01-29T09:37:39;-1.30;99.90
19483;DHT22;9882;51.166;6.992;2023-01-29T09:40:20;-1.10;99.90
19483;DHT22;9882;51.166;6.992;2023-01-29T09:42:54;-1.20;99.90
19483;DHT22;9882;51.166;6.992;2023-01-29T10:00:45;-1.00;99.90
19483;DHT22;9882;51.166;6.992;2023-01-29T10:03:28;-1.10;99.90
19483;DHT22;9882;51.166;6.992;2023-01-29T10:13:20;-1.00;99.90
19483;DHT22;9882;51.166;6.992;2023-01-29T10:16:05;-0.90;99.90
19483;DHT22;9882;51.166;6.992;2023-01-29T10:18:59;-0.80;99.90
19483;DHT22;9882;51.166;6.992;2023-01-29T10:21:40;-0.90;99.90
19483;DHT22;9882;51.166;6.992;2023-01-29T10:24:25;-0.80;99.90
19483;DHT22;9882;51.166;6.992;2023-01-29T10:26:56;-0.70;99.90
19483;DHT22;9882;51.166;6.992;2023-01-29T10:29:26;-0.70;99.90
19483;DHT22;9882;51.166;6.992;2023-01-29T10:32:00;-0.70;99.90
19483;DHT22;9882;51.166;6.992;2023-01-29T10:34:35;-0.60;99.90
19483;DHT22;9882;51.166;6.992;2023-01-29T10:37:15;-0.60;99.90
19483;DHT22;9882;51.166;6.992;2023-01-29T10:39:44;-0.60;99.90
19483;DHT22;9882;51.166;6.992;2023-01-29T10:42:21;-0.70;99.90
19483;DHT22;9882;51.166;6.992;2023-01-29T10:45:07;-0.70;99.90
19483;DHT22;9882;51.166;6.992;2023-01-29T10:48:01;-0.70;99.90
19483;DHT22;9882;51.166;6.992;2023-01-29T10:50:43;-0.60;99.90
19483;DHT22;9882;51.166;6.992;2023-01-29T10:53:26;-0.50;99.90
19483;DHT22;9882;51.166;6.992;2023-01-29T10:56:04;-0.50;99.90
19483;DHT22;9882;51.166;6.992;2023-01-29T10:58:50;-0.50;99.90
19483;DHT22;9882;51.166;6.992;2023-01-29T11:01:20;-0.40;99.90
19483;DHT22;9882;51.166;6.992;2023-01-29T11:04:02;-0.40;99.90
19483;DHT22;9882;51.166;6.992;2023-01-29T11:06:37;-0.40;99.90
19483;DHT22;9882;51.166;6.992;2023-01-29T11:09:25;-0.40;99.90
19483;DHT22;9882;51.166;6.992;2023-01-29T11:12:03;-0.20;99.90
19483;DHT22;9882;51.166;6.992;2023-01-29T11:19:10;-0.20;99.90
19483;DHT22;9882;51.166;6.992;2023-01-29T11:37:15;0.00;99.90
19483;DHT22;9882;51.166;6.992;2023-01-29T11:39:45;0.00;99.90
19483;DHT22;9882;51.166;6.992;2023-01-29T11:42:19;0.00;99.90
19483;DHT22;9882;51.166;6.992;2023-01-29T11:44:48;-0.10;99.90
19483;DHT22;9882;51.166;6.992;2023-01-29T11:47:18;-0.10;99.90
19483;DHT22;9882;51.166;6.992;2023-01-29T11:49:51;0.00;99.90
19483;DHT22;9882;51.166;6.992;2023-01-29T11:52:23;0.10;99.90
19483;DHT22;9882;51.166;6.992;2023-01-29T11:54:54;0.00;99.90
19483;DHT22;9882;51.166;6.992;2023-01-29T11:57:30;0.00;99.90
19483;DHT22;9882;51.166;6.992;2023-01-29T12:00:02;0.20;99.90
19483;DHT22;9882;51.166;6.992;2023-01-29T12:02:36;0.30;99.90
19483;DHT22;9882;51.166;6.992;2023-01-29T12:05:13;0.20;99.90
19483;DHT22;9882;51.166;6.992;2023-01-29T12:07:46;0.20;99.90
19483;DHT22;9882;51.166;6.992;2023-01-29T12:10:30;0.20;99.90
19483;DHT22;9882;51.166;6.992;2023-01-29T12:13:18;0.10;99.90
19483;DHT22;9882;51.166;6.992;2023-01-29T12:15:49;0.20;99.90
19483;DHT22;9882;51.166;6.992;2023-01-29T12:18:35;0.10;99.90
19483;DHT22;9882;51.166;6.992;2023-01-29T12:21:14;0.10;99.90
19483;DHT22;9882;51.166;6.992;2023-01-29T12:23:52;0.30;99.90
19483;DHT22;9882;51.166;6.992;2023-01-29T12:26:26;0.10;99.90
19483;DHT22;9882;51.166;6.992;2023-01-29T12:29:12;0.20;99.90
19483;DHT22;9882;51.166;6.992;2023-01-29T12:31:49;0.20;99.90
19483;DHT22;9882;51.166;6.992;2023-01-29T12:34:25;0.30;99.90
19483;DHT22;9882;51.166;6.992;2023-01-29T12:36:58;0.30;99.90
19483;DHT22;9882;51.166;6.992;2023-01-29T12:39:29;0.40;99.90
19483;DHT22;9882;51.166;6.992;2023-01-29T12:42:02;0.60;99.90
19483;DHT22;9882;51.166;6.992;2023-01-29T12:44:35;1.00;99.90
19483;DHT22;9882;51.166;6.992;2023-01-29T12:47:14;0.90;99.90
19483;DHT22;9882;51.166;6.992;2023-01-29T12:49:46;0.90;99.90
19483;DHT22;9882;51.166;6.992;2023-01-29T12:52:22;1.10;99.90
19483;DHT22;9882;51.166;6.992;2023-01-29T12:54:57;1.30;99.90
19483;DHT22;9882;51.166;6.992;2023-01-29T12:57:40;1.30;99.90
19483;DHT22;9882;51.166;6.992;2023-01-29T13:00:12;1.40;99.90
19483;DHT22;9882;51.166;6.992;2023-01-29T13:02:48;1.50;99.90
19483;DHT22;9882;51.166;6.992;2023-01-29T13:05:22;1.40;99.90
19483;DHT22;9882;51.166;6.992;2023-01-29T13:07:57;1.20;99.90
19483;DHT22;9882;51.166;6.992;2023-01-29T13:10:31;1.40;99.90
19483;DHT22;9882;51.166;6.992;2023-01-29T13:13:05;1.40;99.90
19483;DHT22;9882;51.166;6.992;2023-01-29T13:15:37;1.40;99.90
19483;DHT22;9882;51.166;6.992;2023-01-29T13:18:36;1.50;99.90
19483;DHT22;9882;51.166;6.992;2023-01-29T13:21:12;1.60;99.90
19483;DHT22;9882;51.166;6.992;2023-01-29T13:23:43;1.50;99.90
19483;DHT22;9882;51.166;6.992;2023-01-29T13:26:17;1.60;99.90
19483;DHT22;9882;51.166;6.992;2023-01-29T13:28:47;1.60;99.90
19483;DHT22;9882;51.166;6.992;2023-01-29T13:31:27;1.70;99.90
19483;DHT22;9882;51.166;6.992;2023-01-29T13:34:05;1.80;99.90
19483;DHT22;9882;51.166;6.992;2023-01-29T13:36:36;1.70;99.90
19483;DHT22;9882;51.166;6.992;2023-01-29T13:39:23;1.60;99.90
19483;DHT22;9882;51.166;6.992;2023-01-29T13:41:55;1.80;99.90
19483;DHT22;9882;51.166;6.992;2023-01-29T13:44:26;1.70;99.90
19483;DHT22;9882;51.166;6.992;2023-01-29T13:46:57;1.60;99.90
19483;DHT22;9882;51.166;6.992;2023-01-29T13:49:31;1.60;99.90
19483;DHT22;9882;51.166;6.992;2023-01-29T13:52:14;1.80;99.90
19483;DHT22;9882;51.166;6.992;2023-01-29T13:54:50;1.80;99.90
19483;DHT22;9882;51.166;6.992;2023-01-29T13:57:48;2.00;99.90
19483;DHT22;9882;51.166;6.992;2023-01-29T14:03:51;1.80;99.90
19483;DHT22;9882;51.166;6.992;2023-01-29T14:06:41;1.90;99.90
19483;DHT22;9882;51.166;6.992;2023-01-29T14:12:32;2.00;99.90
19483;DHT22;9882;51.166;6.992;2023-01-29T14:15:24;1.90;99.90
19483;DHT22;9882;51.166;6.992;2023-01-29T14:18:17;1.90;99.90
19483;DHT22;9882;51.166;6.992;2023-01-29T14:20:53;2.10;99.90
19483;DHT22;9882;51.166;6.992;2023-01-29T14:23:32;2.00;99.90
19483;DHT22;9882;51.166;6.992;2023-01-29T14:26:04;2.00;99.90
19483;DHT22;9882;51.166;6.992;2023-01-29T14:28:34;2.00;99.90
19483;DHT22;9882;51.166;6.992;2023-01-29T14:31:04;1.90;99.90
19483;DHT22;9882;51.166;6.992;2023-01-29T14:33:35;2.00;99.90
19483;DHT22;9882;51.166;6.992;2023-01-29T14:36:10;1.90;99.90
19483;DHT22;9882;51.166;6.992;2023-01-29T14:38:40;2.00;99.90
19483;DHT22;9882;51.166;6.992;2023-01-29T14:41:19;1.90;99.90
19483;DHT22;9882;51.166;6.992;2023-01-29T14:47:04;2.00;99.90
19483;DHT22;9882;51.166;6.992;2023-01-29T14:49:49;2.00;99.90
19483;DHT22;9882;51.166;6.992;2023-01-29T14:52:20;2.00;99.90
19483;DHT22;9882;51.166;6.992;2023-01-29T14:54:49;2.10;99.90
19483;DHT22;9882;51.166;6.992;2023-01-29T14:57:19;2.10;99.90
19483;DHT22;9882;51.166;6.992;2023-01-29T14:59:53;2.30;99.90
19483;DHT22;9882;51.166;6.992;2023-01-29T15:02:28;2.10;99.90
19483;DHT22;9882;51.166;6.992;2023-01-29T15:05:03;2.00;99.90
19483;DHT22;9882;51.166;6.992;2023-01-29T15:07:37;1.80;99.90
19483;DHT22;9882;51.166;6.992;2023-01-29T15:10:14;1.90;99.90
19483;DHT22;9882;51.166;6.992;2023-01-29T15:12:53;1.90;99.90
19483;DHT22;9882;51.166;6.992;2023-01-29T15:15:31;1.90;99.90
19483;DHT22;9882;51.166;6.992;2023-01-29T15:18:07;2.00;99.90
19483;DHT22;9882;51.166;6.992;2023-01-29T15:20:38;1.90;99.90
19483;DHT22;9882;51.166;6.992;2023-01-29T15:23:24;2.00;99.90
19483;DHT22;9882;51.166;6.992;2023-01-29T15:25:55;1.90;99.90
19483;DHT22;9882;51.166;6.992;2023-01-29T15:28:24;1.80;99.90
19483;DHT22;9882;51.166;6.992;2023-01-29T15:30:54;1.80;99.90
19483;DHT22;9882;51.166;6.992;2023-01-29T15:33:27;1.80;99.90
19483;DHT22;9882;51.166;6.992;2023-01-29T15:35:58;1.70;99.90
19483;DHT22;9882;51.166;6.992;2023-01-29T15:38:35;1.70;99.90
19483;DHT22;9882;51.166;6.992;2023-01-29T15:41:16;1.70;99.90
19483;DHT22;9882;51.166;6.992;2023-01-29T15:43:46;1.70;99.90
19483;DHT22;9882;51.166;6.992;2023-01-29T15:46:19;1.70;99.90
19483;DHT22;9882;51.166;6.992;2023-01-29T15:48:51;1.70;99.90
19483;DHT22;9882;51.166;6.992;2023-01-29T15:51:22;1.80;99.90
19483;DHT22;9882;51.166;6.992;2023-01-29T15:53:53;1.70;99.90
19483;DHT22;9882;51.166;6.992;2023-01-29T15:56:26;1.80;99.90
19483;DHT22;9882;51.166;6.992;2023-01-29T15:58:58;1.80;99.90
19483;DHT22;9882;51.166;6.992;2023-01-29T16:01:30;1.90;99.90
19483;DHT22;9882;51.166;6.992;2023-01-29T16:04:00;1.90;99.90
19483;DHT22;9882;51.166;6.992;2023-01-29T16:06:34;1.80;99.90
19483;DHT22;9882;51.166;6.992;2023-01-29T16:09:04;1.90;99.90
19483;DHT22;9882;51.166;6.992;2023-01-29T16:11:33;1.90;99.90
19483;DHT22;9882;51.166;6.992;2023-01-29T16:14:04;1.80;99.90
19483;DHT22;9882;51.166;6.992;2023-01-29T16:16:36;1.90;99.90
19483;DHT22;9882;51.166;6.992;2023-01-29T16:19:19;1.90;99.90
19483;DHT22;9882;51.166;6.992;2023-01-29T16:21:53;1.80;99.90
19483;DHT22;9882;51.166;6.992;2023-01-29T16:24:23;1.90;99.90
19483;DHT22;9882;51.166;6.992;2023-01-29T16:26:57;1.90;99.90
19483;DHT22;9882;51.166;6.992;2023-01-29T16:29:30;1.80;99.90
19483;DHT22;9882;51.166;6.992;2023-01-29T16:32:00;1.70;99.90
19483;DHT22;9882;51.166;6.992;2023-01-29T16:34:33;1.70;99.90
19483;DHT22;9882;51.166;6.992;2023-01-29T16:37:05;1.80;99.90
19483;DHT22;9882;51.166;6.992;2023-01-29T16:39:37;1.80;99.90
19483;DHT22;9882;51.166;6.992;2023-01-29T16:42:28;1.80;99.90
19483;DHT22;9882;51.166;6.992;2023-01-29T16:44:59;1.80;99.90
19483;DHT22;9882;51.166;6.992;2023-01-29T16:47:31;1.80;99.90
19483;DHT22;9882;51.166;6.992;2023-01-29T16:50:22;1.80;99.90
19483;DHT22;9882;51.166;6.992;2023-01-29T16:52:59;1.80;99.90
19483;DHT22;9882;51.166;6.992;2023-01-29T16:55:32;1.80;99.90
19483;DHT22;9882;51.166;6.992;2023-01-29T16:58:07;1.80;99.90
19483;DHT22;9882;51.166;6.992;2023-01-29T17:00:43;1.90;99.90
19483;DHT22;9882;51.166;6.992;2023-01-29T17:03:14;1.90;99.90
19483;DHT22;9882;51.166;6.992;2023-01-29T17:05:46;1.90;99.90
19483;DHT22;9882;51.166;6.992;2023-01-29T17:08:21;1.80;99.90
19483;DHT22;9882;51.166;6.992;2023-01-29T17:10:50;2.00;99.90
19483;DHT22;9882;51.166;6.992;2023-01-29T17:13:24;1.90;99.90
19483;DHT22;9882;51.166;6.992;2023-01-29T17:15:58;1.90;99.90
19483;DHT22;9882;51.166;6.992;2023-01-29T17:18:29;2.10;99.90
19483;DHT22;9882;51.166;6.992;2023-01-29T17:20:59;1.80;99.90
19483;DHT22;9882;51.166;6.992;2023-01-29T17:23:27;1.80;99.90
19483;DHT22;9882;51.166;6.992;2023-01-29T17:25:56;1.80;99.90
19483;DHT22;9882;51.166;6.992;2023-01-29T17:28:26;1.80;99.90
19483;DHT22;9882;51.166;6.992;2023-01-29T17:30:55;1.80;99.90
19483;DHT22;9882;51.166;6.992;2023-01-29T17:33:33;1.80;99.90
19483;DHT22;9882;51.166;6.992;2023-01-29T17:36:04;1.80;99.90
19483;DHT22;9882;51.166;6.992;2023-01-29T17:38:32;1.80;99.90
19483;DHT22;9882;51.166;6.992;2023-01-29T17:41:04;2.00;99.90
19483;DHT22;9882;51.166;6.992;2023-01-29T17:43:33;1.80;99.90
19483;DHT22;9882;51.166;6.992;2023-01-29T17:46:02;1.90;99.90
19483;DHT22;9882;51.166;6.992;2023-01-29T17:48:31;1.80;99.90